sensor_id;sensor_type;location;lat;lon;timestamp;P1;durP1;ratioP1;P2;durP2;ratioP2
46633;SDS011;32362;49.986;8.026;2022-12-13T00:04:40;45.03;;;16.55;;
46633;SDS011;32362;49.986;8.026;2022-12-13T00:31:22;47.13;;;16.50;;
46633;SDS011;32362;49.986;8.026;2022-12-13T00:58:04;40.72;;;15.50;;
46633;SDS011;32362;49.986;8.026;2022-12-13T01:24:45;45.07;;;16.00;;
46633;SDS011;32362;49.986;8.026;2022-12-13T01:51:40;44.03;;;14.60;;
46633;SDS011;32362;49.986;8.026;2022-12-13T02:45:43;22.90;;;7.43;;
46633;SDS011;32362;49.986;8.026;2022-12-13T03:39:29;43.33;;;17.30;;
46633;SDS011;32362;49.986;8.026;2022-12-13T04:06:10;37.35;;;14.63;;
46633;SDS011;32362;49.986;8.026;2022-12-13T04:32:51;32.85;;;13.65;;
46633;SDS011;32362;49.986;8.026;2022-12-13T04:59:32;42.70;;;13.93;;
46633;SDS011;32362;49.986;8.026;2022-12-13T05:26:12;39.95;;;13.45;;
46633;SDS011;32362;49.986;8.026;2022-12-13T05:52:53;33.63;;;12.17;;
46633;SDS011;32362;49.986;8.026;2022-12-13T06:19:34;34.92;;;13.45;;
46633;SDS011;32362;49.986;8.026;2022-12-13T06:46:15;37.93;;;13.77;;
46633;SDS011;32362;49.986;8.026;2022-12-13T07:12:56;44.83;;;14.68;;
46633;SDS011;32362;49.986;8.026;2022-12-13T07:39:36;32.80;;;11.23;;
46633;SDS011;32362;49.986;8.026;2022-12-13T08:06:17;43.00;;;14.17;;
46633;SDS011;32362;49.986;8.026;2022-12-13T08:32:58;32.33;;;11.35;;
46633;SDS011;32362;49.986;8.026;2022-12-13T08:59:39;30.03;;;12.40;;
46633;SDS011;32362;49.986;8.026;2022-12-13T09:26:20;39.28;;;16.38;;
46633;SDS011;32362;49.986;8.026;2022-12-13T09:53:01;26.65;;;10.60;;
46633;SDS011;32362;49.986;8.026;2022-12-13T10:19:47;20.23;;;9.32;;
46633;SDS011;32362;49.986;8.026;2022-12-13T10:46:31;19.88;;;8.50;;
46633;SDS011;32362;49.986;8.026;2022-12-13T11:13:21;19.95;;;8.85;;
46633;SDS011;32362;49.986;8.026;2022-12-13T11:40:14;19.20;;;8.52;;
46633;SDS011;32362;49.986;8.026;2022-12-13T12:07:01;19.83;;;9.75;;
46633;SDS011;32362;49.986;8.026;2022-12-13T12:34:00;20.98;;;9.90;;
46633;SDS011;32362;49.986;8.026;2022-12-13T13:27:42;19.92;;;9.95;;
46633;SDS011;32362;49.986;8.026;2022-12-13T14:48:22;17.10;;;8.27;;
46633;SDS011;32362;49.986;8.026;2022-12-13T15:15:04;29.42;;;10.77;;
46633;SDS011;32362;49.986;8.026;2022-12-13T15:41:47;18.98;;;7.43;;
46633;SDS011;32362;49.986;8.026;2022-12-13T16:08:30;24.88;;;10.65;;
46633;SDS011;32362;49.986;8.026;2022-12-13T16:35:14;29.13;;;11.80;;
46633;SDS011;32362;49.986;8.026;2022-12-13T17:01:55;22.08;;;8.32;;
46633;SDS011;32362;49.986;8.026;2022-12-13T17:28:36;16.23;;;6.07;;
46633;SDS011;32362;49.986;8.026;2022-12-13T17:55:17;18.08;;;6.40;;
46633;SDS011;32362;49.986;8.026;2022-12-13T18:21:58;22.37;;;9.00;;
46633;SDS011;32362;49.986;8.026;2022-12-13T18:48:39;17.73;;;7.97;;
46633;SDS011;32362;49.986;8.026;2022-12-13T19:15:20;10.95;;;4.25;;
46633;SDS011;32362;49.986;8.026;2022-12-13T19:42:00;20.80;;;7.67;;
46633;SDS011;32362;49.986;8.026;2022-12-13T20:08:41;17.97;;;8.67;;
46633;SDS011;32362;49.986;8.026;2022-12-13T20:35:22;16.52;;;6.88;;
46633;SDS011;32362;49.986;8.026;2022-12-13T21:02:03;19.03;;;6.37;;
46633;SDS011;32362;49.986;8.026;2022-12-13T21:28:43;14.80;;;6.93;;
46633;SDS011;32362;49.986;8.026;2022-12-13T21:55:25;16.15;;;6.93;;
46633;SDS011;32362;49.986;8.026;2022-12-13T22:22:06;12.00;;;5.43;;
46633;SDS011;32362;49.986;8.026;2022-12-13T22:48:47;14.52;;;5.00;;
46633;SDS011;32362;49.986;8.026;2022-12-13T23:15:28;12.65;;;6.10;;
46633;SDS011;32362;49.986;8.026;2022-12-13T23:42:09;10.57;;;5.18;;
